Time;durP1;ratioP1;P1;durP2;ratioP2;P2;SDS_P1;SDS_P2;PMS_P1;PMS_P2;Temp;Humidity;BMP_temperature;BMP_pressure;BME280_temperature;BME280_humidity;BME280_pressure;Samples;Min_cycle;Max_cycle;Signal;HPM_P1;HPM_P2
2022/11/21 00:01:24;;;;;;;;;14.00;13.25;;;;;;;;5093636;28;8804;-75
2022/11/21 00:03:50;;;;;;;;;11.00;10.75;;;;;;;;5092690;28;8852;-75
2022/11/21 00:06:15;;;;;;;;;11.25;8.50;;;;;;;;5091558;28;11516;-74
2022/11/21 00:08:41;;;;;;;;;13.25;11.00;;;;;;;;5086530;28;8898;-74
2022/11/21 00:11:06;;;;;;;;;16.50;13.50;;;;;;;;5091006;28;9532;-74
2022/11/21 00:13:35;;;;;;;;;10.25;10.25;;;;;;;;5090977;28;8805;-75
2022/11/21 00:16:04;;;;;;;;;16.50;11.50;;;;;;;;5090752;28;8778;-75
2022/11/21 00:18:29;;;;;;;;;10.00;10.00;;;;;;;;5090568;28;11453;-75
2022/11/21 00:20:54;;;;;;;;;11.75;8.50;;;;;;;;5090176;28;11511;-74
2022/11/21 00:23:20;;;;;;;;;11.00;10.00;;;;;;;;5090106;28;8805;-74
2022/11/21 00:25:45;;;;;;;;;11.50;11.50;;;;;;;;5072258;28;8890;-74
2022/11/21 00:28:10;;;;;;;;;13.25;13.00;;;;;;;;5090046;28;8809;-75
2022/11/21 00:30:35;;;;;;;;;12.50;11.50;;;;;;;;5090531;28;8913;-76
2022/11/21 00:33:01;;;;;;;;;14.00;13.00;;;;;;;;5090822;28;8824;-76
2022/11/21 00:35:26;;;;;;;;;15.25;12.00;;;;;;;;5090621;28;8883;-76
2022/11/21 00:37:52;;;;;;;;;11.00;11.00;;;;;;;;5089945;28;8817;-76
2022/11/21 00:40:23;;;;;;;;;10.50;10.50;;;;;;;;5071947;28;8810;-76
2022/11/21 00:42:48;;;;;;;;;11.50;10.75;;;;;;;;5071726;28;8819;-74
2022/11/21 00:45:14;;;;;;;;;13.75;11.00;;;;;;;;5089668;28;11456;-74
2022/11/21 00:47:39;;;;;;;;;9.75;7.75;;;;;;;;5089096;28;8845;-74
2022/11/21 00:50:04;;;;;;;;;13.00;10.00;;;;;;;;5089871;28;8806;-74
2022/11/21 00:52:30;;;;;;;;;12.25;10.75;;;;;;;;5089900;28;8774;-75
2022/11/21 00:54:55;;;;;;;;;13.00;10.00;;;;;;;;5089483;28;8782;-75
2022/11/21 00:57:21;;;;;;;;;10.67;7.67;;;;;;;;5089171;28;8844;-76
2022/11/21 00:59:46;;;;;;;;;10.67;10.00;;;;;;;;5088769;28;8779;-74
2022/11/21 01:02:12;;;;;;;;;10.67;10.00;;;;;;;;5089557;28;8794;-74
2022/11/21 01:04:38;;;;;;;;;16.00;13.00;;;;;;;;5089716;28;8802;-75
2022/11/21 01:07:03;;;;;;;;;9.67;9.67;;;;;;;;5089309;28;8844;-73
2022/11/21 01:09:28;;;;;;;;;10.67;8.00;;;;;;;;5089526;28;8977;-74
2022/11/21 01:11:55;;;;;;;;;7.00;7.00;;;;;;;;5071736;28;8802;-75
2022/11/21 01:14:20;;;;;;;;;10.00;7.00;;;;;;;;5089016;28;8878;-74
2022/11/21 01:16:45;;;;;;;;;10.00;10.00;;;;;;;;5089347;28;11428;-75
2022/11/21 01:19:10;;;;;;;;;13.00;10.33;;;;;;;;5089656;28;8833;-76
2022/11/21 01:21:36;;;;;;;;;9.00;9.00;;;;;;;;5089485;28;8794;-75
2022/11/21 01:24:01;;;;;;;;;13.00;12.00;;;;;;;;5089510;28;8789;-74
2022/11/21 01:26:27;;;;;;;;;10.00;7.00;;;;;;;;5089354;28;8903;-75
2022/11/21 01:28:53;;;;;;;;;12.00;10.00;;;;;;;;5089070;28;8809;-75
2022/11/21 01:31:20;;;;;;;;;11.33;9.67;;;;;;;;5089266;28;11475;-74
2022/11/21 01:33:45;;;;;;;;;14.33;9.33;;;;;;;;5089132;28;8841;-76
2022/11/21 01:36:15;;;;;;;;;9.33;7.67;;;;;;;;5089459;28;8793;-76
2022/11/21 01:38:42;;;;;;;;;11.75;6.25;;;;;;;;5089148;28;8824;-76
2022/11/21 01:41:07;;;;;;;;;10.75;9.50;;;;;;;;5071534;28;11496;-75
2022/11/21 01:43:32;;;;;;;;;8.67;8.33;;;;;;;;5089428;28;11382;-76
2022/11/21 01:45:59;;;;;;;;;7.00;7.00;;;;;;;;5089319;28;8805;-75
2022/11/21 01:48:27;;;;;;;;;10.00;8.00;;;;;;;;5089588;28;8845;-75
2022/11/21 01:50:53;;;;;;;;;8.67;8.67;;;;;;;;5089053;28;11429;-76
2022/11/21 01:53:19;;;;;;;;;8.00;7.67;;;;;;;;5089058;28;11378;-74
2022/11/21 01:55:44;;;;;;;;;10.00;7.67;;;;;;;;5089664;28;11563;-76
2022/11/21 01:58:11;;;;;;;;;9.50;9.50;;;;;;;;5089242;28;8806;-76
2022/11/21 02:00:39;;;;;;;;;9.25;7.75;;;;;;;;5093086;28;8770;-75
2022/11/21 02:03:08;;;;;;;;;8.50;7.00;;;;;;;;5093501;28;11450;-75
2022/11/21 02:05:34;;;;;;;;;9.33;7.33;;;;;;;;5093009;28;11432;-76
2022/11/21 02:08:05;;;;;;;;;10.67;9.67;;;;;;;;5092946;28;11445;-76
2022/11/21 02:10:33;;;;;;;;;7.00;7.00;;;;;;;;5092983;28;11437;-76
2022/11/21 02:12:59;;;;;;;;;10.00;10.00;;;;;;;;5093135;28;11482;-75
2022/11/21 02:15:25;;;;;;;;;7.67;7.00;;;;;;;;5105148;28;11403;-78
2022/11/21 02:17:50;;;;;;;;;6.00;6.00;;;;;;;;5076124;28;8831;-76
2022/11/21 02:20:21;;;;;;;;;9.67;9.00;;;;;;;;5093016;28;11375;-74
2022/11/21 02:22:48;;;;;;;;;10.00;9.00;;;;;;;;5074651;28;8936;-75
2022/11/21 02:25:16;;;;;;;;;10.50;5.50;;;;;;;;5092596;28;11575;-75
2022/11/21 02:27:42;;;;;;;;;9.33;7.00;;;;;;;;5092711;28;11528;-73
2022/11/21 02:30:08;;;;;;;;;7.00;6.00;;;;;;;;5091952;28;11393;-74
2022/11/21 02:32:41;;;;;;;;;9.33;6.00;;;;;;;;5074069;28;9570;-75
2022/11/21 02:35:07;;;;;;;;;7.25;6.25;;;;;;;;5092323;28;11411;-74
2022/11/21 02:37:34;;;;;;;;;7.00;7.00;;;;;;;;5091986;28;12197;-75
2022/11/21 02:40:02;;;;;;;;;12.00;7.00;;;;;;;;5074293;28;8828;-74
2022/11/21 02:42:45;;;;;;;;;9.67;7.00;;;;;;;;5092575;28;11434;-75
2022/11/21 02:45:29;;;;;;;;;12.33;7.00;;;;;;;;5091949;28;11676;-75
2022/11/21 02:47:55;;;;;;;;;9.00;7.67;;;;;;;;5091792;28;12155;-74
2022/11/21 02:50:27;;;;;;;;;7.00;7.00;;;;;;;;5073695;28;11520;-74
2022/11/21 02:52:54;;;;;;;;;7.00;6.00;;;;;;;;5073721;28;8802;-75
2022/11/21 02:55:19;;;;;;;;;9.00;6.00;;;;;;;;5073996;28;8825;-75
2022/11/21 02:57:45;;;;;;;;;6.33;6.00;;;;;;;;5092327;28;8793;-75
2022/11/21 03:00:10;;;;;;;;;8.33;6.67;;;;;;;;5091751;28;8821;-75
2022/11/21 03:02:36;;;;;;;;;6.00;4.00;;;;;;;;5073548;28;8795;-75
2022/11/21 03:05:02;;;;;;;;;10.00;7.00;;;;;;;;5091389;28;8816;-75
2022/11/21 03:07:27;;;;;;;;;7.00;6.00;;;;;;;;5091864;28;8805;-75
2022/11/21 03:09:52;;;;;;;;;4.00;4.00;;;;;;;;5091130;28;9452;-75
2022/11/21 03:12:18;;;;;;;;;7.00;7.00;;;;;;;;5091988;28;8770;-75
2022/11/21 03:14:43;;;;;;;;;7.00;7.00;;;;;;;;5091855;28;9543;-75
2022/11/21 03:17:08;;;;;;;;;8.33;6.00;;;;;;;;5092067;28;8825;-75
2022/11/21 03:19:34;;;;;;;;;8.33;6.00;;;;;;;;5091711;28;8870;-75
2022/11/21 03:21:59;;;;;;;;;6.67;5.33;;;;;;;;5091601;28;8778;-76
2022/11/21 03:24:24;;;;;;;;;6.67;6.00;;;;;;;;5091137;28;8802;-76
2022/11/21 03:26:49;;;;;;;;;9.00;6.00;;;;;;;;5091321;28;8857;-74
2022/11/21 03:29:15;;;;;;;;;7.00;7.00;;;;;;;;5091223;28;8813;-74
2022/11/21 03:31:40;;;;;;;;;6.50;4.50;;;;;;;;5091098;28;8836;-75
2022/11/21 03:34:05;;;;;;;;;7.00;7.00;;;;;;;;5091394;28;8785;-75
2022/11/21 03:36:31;;;;;;;;;6.00;6.00;;;;;;;;5090982;28;8787;-74
2022/11/21 03:38:56;;;;;;;;;8.33;7.00;;;;;;;;5072756;28;8918;-72
2022/11/21 03:41:28;;;;;;;;;6.33;6.33;;;;;;;;5091555;28;8893;-73
2022/11/21 03:43:56;;;;;;;;;8.00;6.67;;;;;;;;5090551;28;8810;-73
2022/11/21 03:46:22;;;;;;;;;6.00;6.00;;;;;;;;5090843;28;11392;-73
2022/11/21 03:48:47;;;;;;;;;6.00;4.00;;;;;;;;5090852;28;11680;-73
2022/11/21 03:51:13;;;;;;;;;7.00;6.00;;;;;;;;5090871;28;8810;-73
2022/11/21 03:53:38;;;;;;;;;7.00;6.00;;;;;;;;5072477;28;8809;-73
2022/11/21 03:56:04;;;;;;;;;6.00;6.00;;;;;;;;5072741;28;9014;-73
2022/11/21 03:58:29;;;;;;;;;2.33;1.00;;;;;;;;5090749;28;8817;-73
2022/11/21 04:00:54;;;;;;;;;6.67;6.33;;;;;;;;5090537;28;8802;-72
2022/11/21 04:03:19;;;;;;;;;7.67;7.67;;;;;;;;5090607;28;8778;-72
2022/11/21 04:05:45;;;;;;;;;9.67;7.00;;;;;;;;5090477;28;8810;-72
2022/11/21 04:08:10;;;;;;;;;4.67;4.67;;;;;;;;5090366;28;8810;-74
2022/11/21 04:10:35;;;;;;;;;9.67;6.67;;;;;;;;5090276;28;8802;-73
2022/11/21 04:13:00;;;;;;;;;6.33;6.33;;;;;;;;5090535;28;8891;-73
2022/11/21 04:15:26;;;;;;;;;7.00;7.00;;;;;;;;5090301;28;8878;-73
2022/11/21 04:17:51;;;;;;;;;7.00;5.33;;;;;;;;5090329;28;8886;-73
2022/11/21 04:20:17;;;;;;;;;4.00;4.00;;;;;;;;5090285;28;8812;-72
2022/11/21 04:22:42;;;;;;;;;7.00;7.00;;;;;;;;5089027;28;8790;-73
2022/11/21 04:25:08;;;;;;;;;7.67;6.33;;;;;;;;5090173;28;8782;-73
2022/11/21 04:27:33;;;;;;;;;6.00;6.00;;;;;;;;5090177;28;8810;-72
2022/11/21 04:29:58;;;;;;;;;8.67;3.00;;;;;;;;5090907;28;8770;-73
2022/11/21 04:32:23;;;;;;;;;6.00;6.00;;;;;;;;5092347;28;8802;-74
2022/11/21 04:34:49;;;;;;;;;12.33;7.00;;;;;;;;5090039;28;9593;-73
2022/11/21 04:37:14;;;;;;;;;4.00;4.00;;;;;;;;5071252;28;8894;-73
2022/11/21 04:39:39;;;;;;;;;10.00;9.00;;;;;;;;5088973;28;8894;-73
2022/11/21 04:42:04;;;;;;;;;7.67;6.67;;;;;;;;5090276;28;8817;-73
2022/11/21 04:44:30;;;;;;;;;9.00;7.00;;;;;;;;5071277;28;8814;-72
2022/11/21 04:46:55;;;;;;;;;9.67;9.00;;;;;;;;5089690;28;8809;-73
2022/11/21 04:49:20;;;;;;;;;6.67;6.00;;;;;;;;5089258;28;8810;-73
2022/11/21 04:51:45;;;;;;;;;7.67;7.67;;;;;;;;5089628;28;8895;-73
2022/11/21 04:54:11;;;;;;;;;9.33;9.00;;;;;;;;5089511;28;8813;-72
2022/11/21 04:56:37;;;;;;;;;7.67;7.67;;;;;;;;5089354;28;8816;-73
2022/11/21 04:59:02;;;;;;;;;12.00;9.00;;;;;;;;5070487;28;8841;-73
2022/11/21 05:01:27;;;;;;;;;2.33;2.33;;;;;;;;5089392;28;8918;-73
2022/11/21 05:03:52;;;;;;;;;7.00;7.00;;;;;;;;5089114;28;8806;-73
2022/11/21 05:06:18;;;;;;;;;7.00;6.00;;;;;;;;5089320;28;9035;-73
2022/11/21 05:08:43;;;;;;;;;8.00;8.00;;;;;;;;5088701;28;8834;-73
2022/11/21 05:13:53;;;;;;;;;12.00;12.00;;;;;;;;5088955;28;8786;-74
2022/11/21 05:16:21;;;;;;;;;10.00;8.33;;;;;;;;5070660;28;8798;-72
2022/11/21 05:18:47;;;;;;;;;10.00;9.33;;;;;;;;5071187;28;8944;-74
2022/11/21 05:21:12;;;;;;;;;13.67;9.00;;;;;;;;5070616;28;8798;-73
2022/11/21 05:23:37;;;;;;;;;11.00;7.00;;;;;;;;5089083;28;8808;-74
2022/11/21 05:26:02;;;;;;;;;6.67;6.67;;;;;;;;5089233;28;8798;-73
2022/11/21 05:28:28;;;;;;;;;0.00;0.00;;;;;;;;5096273;28;8873;-73
2022/11/21 05:30:53;;;;;;;;;9.67;9.00;;;;;;;;5109082;28;8927;-74
2022/11/21 05:33:19;;;;;;;;;7.00;6.00;;;;;;;;5108838;28;8803;-74
2022/11/21 05:35:44;;;;;;;;;7.00;7.00;;;;;;;;5092306;28;8842;-73
2022/11/21 05:38:10;;;;;;;;;7.00;7.00;;;;;;;;5070749;28;8878;-76
2022/11/21 05:40:35;;;;;;;;;9.00;8.00;;;;;;;;5089056;28;8828;-74
2022/11/21 05:45:47;;;;;;;;;9.33;9.33;;;;;;;;5089384;28;8786;-75
2022/11/21 05:48:12;;;;;;;;;8.33;7.33;;;;;;;;5089151;28;8830;-73
2022/11/21 05:50:37;;;;;;;;;11.00;8.67;;;;;;;;5089171;28;8821;-73
2022/11/21 05:53:03;;;;;;;;;5.67;5.67;;;;;;;;5089106;28;8790;-75
2022/11/21 05:55:29;;;;;;;;;11.67;8.67;;;;;;;;5089239;28;8794;-73
2022/11/21 05:57:56;;;;;;;;;15.00;14.00;;;;;;;;5089034;28;8770;-74
2022/11/21 06:00:22;;;;;;;;;13.33;12.33;;;;;;;;5088712;28;8782;-75
2022/11/21 06:05:31;;;;;;;;;20.33;12.00;;;;;;;;5073404;28;9477;-74
2022/11/21 06:07:56;;;;;;;;;14.00;11.00;;;;;;;;5088084;28;8881;-73
2022/11/21 06:10:22;;;;;;;;;14.00;9.33;;;;;;;;5087584;28;8799;-70
2022/11/21 06:12:47;;;;;;;;;10.00;8.00;;;;;;;;5088663;28;8799;-73
2022/11/21 06:15:12;;;;;;;;;18.00;14.00;;;;;;;;5088629;28;8800;-70
2022/11/21 06:17:37;;;;;;;;;13.00;11.33;;;;;;;;5088978;28;8924;-71
2022/11/21 06:20:03;;;;;;;;;15.00;13.67;;;;;;;;5088846;28;8799;-71
2022/11/21 06:22:28;;;;;;;;;12.67;12.67;;;;;;;;5087113;28;8861;-72
2022/11/21 06:24:53;;;;;;;;;26.00;20.00;;;;;;;;5109018;28;8780;-71
2022/11/21 06:27:19;;;;;;;;;11.67;10.67;;;;;;;;5109089;28;8850;-72
2022/11/21 06:29:44;;;;;;;;;14.00;12.67;;;;;;;;5108573;28;8804;-72
2022/11/21 06:32:09;;;;;;;;;13.67;11.00;;;;;;;;5108983;28;9329;-71
2022/11/21 06:34:35;;;;;;;;;15.33;14.00;;;;;;;;5109254;28;8811;-72
2022/11/21 06:37:00;;;;;;;;;13.33;13.33;;;;;;;;5108964;28;8891;-71
2022/11/21 06:39:25;;;;;;;;;16.67;14.00;;;;;;;;5095073;28;8802;-70
2022/11/21 06:41:50;;;;;;;;;14.33;14.00;;;;;;;;5096925;28;8840;-71
2022/11/21 06:44:17;;;;;;;;;12.00;12.00;;;;;;;;5071218;28;8853;-70
2022/11/21 06:46:42;;;;;;;;;14.67;11.67;;;;;;;;5092168;28;8778;-69
2022/11/21 06:49:07;;;;;;;;;14.00;14.00;;;;;;;;5095811;28;8806;-75
2022/11/21 06:51:33;;;;;;;;;15.67;12.00;;;;;;;;5092396;28;8928;-72
2022/11/21 06:53:58;;;;;;;;;18.33;18.33;;;;;;;;5091897;28;8778;-70
2022/11/21 06:56:24;;;;;;;;;12.33;12.33;;;;;;;;5091285;28;8844;-69
2022/11/21 06:58:50;;;;;;;;;14.00;11.67;;;;;;;;5091901;28;8820;-71
2022/11/21 07:01:15;;;;;;;;;14.33;14.33;;;;;;;;5091945;28;8912;-69
2022/11/21 07:03:41;;;;;;;;;11.00;11.00;;;;;;;;5091880;28;8798;-72
2022/11/21 07:06:06;;;;;;;;;12.00;11.33;;;;;;;;5091588;28;8828;-70
2022/11/21 07:08:34;;;;;;;;;16.00;11.33;;;;;;;;5091624;28;8826;-71
2022/11/21 07:11:00;;;;;;;;;11.25;11.00;;;;;;;;5090084;28;8786;-72
2022/11/21 07:13:27;;;;;;;;;13.00;11.25;;;;;;;;5090707;28;11615;-72
2022/11/21 07:15:54;;;;;;;;;12.50;12.00;;;;;;;;5090823;28;8888;-72
2022/11/21 07:18:20;;;;;;;;;15.00;13.25;;;;;;;;5091216;28;12308;-73
2022/11/21 07:20:45;;;;;;;;;17.25;15.00;;;;;;;;5091103;28;12127;-71
2022/11/21 07:23:11;;;;;;;;;13.50;12.75;;;;;;;;5091072;28;11435;-71
2022/11/21 07:25:38;;;;;;;;;17.25;14.00;;;;;;;;5091407;28;8980;-71
2022/11/21 07:28:03;;;;;;;;;13.75;13.50;;;;;;;;5091101;28;8798;-71
2022/11/21 07:30:29;;;;;;;;;11.25;10.00;;;;;;;;5090815;28;11514;-71
2022/11/21 07:32:58;;;;;;;;;20.50;16.25;;;;;;;;5091074;28;8889;-71
2022/11/21 07:35:23;;;;;;;;;18.50;17.25;;;;;;;;5091215;28;8897;-71
2022/11/21 07:37:48;;;;;;;;;17.75;17.75;;;;;;;;5090841;28;11613;-70
2022/11/21 07:40:14;;;;;;;;;19.25;16.00;;;;;;;;5090826;28;8891;-69
2022/11/21 07:42:39;;;;;;;;;22.00;22.00;;;;;;;;5091230;28;8802;-70
2022/11/21 07:45:04;;;;;;;;;17.25;17.25;;;;;;;;5090394;28;8796;-71
2022/11/21 07:47:30;;;;;;;;;22.00;21.50;;;;;;;;5092530;28;8813;-71
2022/11/21 07:49:55;;;;;;;;;36.00;29.33;;;;;;;;5092415;28;8817;-71
2022/11/21 07:52:20;;;;;;;;;35.00;29.00;;;;;;;;5091218;28;8799;-71
2022/11/21 07:54:46;;;;;;;;;21.00;19.67;;;;;;;;5090722;28;9001;-70
2022/11/21 07:57:11;;;;;;;;;23.33;18.33;;;;;;;;5089293;28;8824;-71
2022/11/21 07:59:37;;;;;;;;;15.00;15.00;;;;;;;;5090270;28;8786;-71
2022/11/21 08:02:02;;;;;;;;;16.25;16.25;;;;;;;;5090667;28;8926;-71
2022/11/21 08:04:28;;;;;;;;;16.67;15.00;;;;;;;;5090383;28;9499;-74
2022/11/21 08:06:53;;;;;;;;;20.67;16.33;;;;;;;;5071983;28;9861;-73
2022/11/21 08:09:18;;;;;;;;;19.67;17.00;;;;;;;;5090332;28;8924;-72
2022/11/21 08:11:43;;;;;;;;;16.33;15.00;;;;;;;;5090024;28;8806;-74
2022/11/21 08:14:09;;;;;;;;;21.33;17.00;;;;;;;;5090141;28;8874;-72
2022/11/21 08:16:34;;;;;;;;;18.33;17.67;;;;;;;;5090441;28;8766;-72
2022/11/21 08:18:59;;;;;;;;;15.67;15.00;;;;;;;;5090157;28;8794;-71
2022/11/21 08:21:25;;;;;;;;;16.00;15.33;;;;;;;;5071945;28;8829;-72
2022/11/21 08:23:50;;;;;;;;;16.67;15.33;;;;;;;;5090166;28;8821;-71
2022/11/21 08:26:16;;;;;;;;;15.33;13.00;;;;;;;;5090092;28;8797;-73
2022/11/21 08:28:41;;;;;;;;;16.00;15.67;;;;;;;;5090064;28;8845;-73
2022/11/21 08:31:06;;;;;;;;;22.00;18.33;;;;;;;;5089697;28;8790;-71
2022/11/21 08:33:31;;;;;;;;;18.00;17.33;;;;;;;;5089699;28;8774;-72
2022/11/21 08:35:57;;;;;;;;;17.00;17.00;;;;;;;;5071716;28;8877;-73
2022/11/21 08:38:22;;;;;;;;;22.00;19.67;;;;;;;;5089750;28;8830;-75
2022/11/21 08:42:01;;;;;;;;;19.00;17.67;;;;;;;;5089802;28;8810;-75
2022/11/21 08:43:33;;;;;;;;;14.67;13.67;;;;;;;;5028024;22;8889;-76
2022/11/21 08:45:58;;;;;;;;;19.67;15.67;;;;;;;;5011056;28;11495;-76
2022/11/21 08:48:23;;;;;;;;;22.00;20.00;;;;;;;;5011167;28;9569;-76
2022/11/21 08:50:48;;;;;;;;;19.33;15.67;;;;;;;;5011198;28;8795;-76
2022/11/21 08:53:14;;;;;;;;;22.00;19.00;;;;;;;;5011335;28;8869;-78
2022/11/21 08:55:39;;;;;;;;;20.67;18.00;;;;;;;;5010992;28;8869;-76
2022/11/21 08:58:04;;;;;;;;;26.00;23.67;;;;;;;;4993265;28;8904;-77
2022/11/21 09:00:29;;;;;;;;;23.00;22.33;;;;;;;;5011048;28;8803;-78
2022/11/21 09:02:55;;;;;;;;;24.00;20.00;;;;;;;;5011176;28;8819;-77
2022/11/21 09:05:20;;;;;;;;;23.33;22.00;;;;;;;;5011211;28;8795;-77
2022/11/21 09:07:45;;;;;;;;;22.33;18.33;;;;;;;;5010403;28;8957;-77
2022/11/21 09:10:11;;;;;;;;;26.33;23.00;;;;;;;;5010806;28;8818;-77
2022/11/21 09:12:36;;;;;;;;;23.00;19.00;;;;;;;;5010639;28;8841;-77
2022/11/21 09:18:04;;;;;;;;;22.00;19.67;;;;;;;;5010884;28;8826;-77
2022/11/21 09:20:30;;;;;;;;;22.00;21.33;;;;;;;;5010756;28;12332;-76
2022/11/21 09:22:55;;;;;;;;;27.33;24.67;;;;;;;;5010495;28;11512;-76
2022/11/21 09:25:20;;;;;;;;;24.00;23.33;;;;;;;;5010763;28;11582;-77
2022/11/21 09:27:45;;;;;;;;;24.33;22.00;;;;;;;;5010778;28;8850;-77
2022/11/21 09:30:11;;;;;;;;;23.67;18.33;;;;;;;;5010383;28;8817;-75
2022/11/21 09:32:36;;;;;;;;;26.33;25.67;;;;;;;;5010669;28;8794;-76
2022/11/21 09:35:01;;;;;;;;;28.00;25.00;;;;;;;;4992934;28;8921;-76
2022/11/21 09:37:27;;;;;;;;;27.33;23.33;;;;;;;;5010425;28;8838;-76
2022/11/21 09:39:52;;;;;;;;;23.75;23.25;;;;;;;;5010445;28;8795;-79
2022/11/21 09:42:26;;;;;;;;;20.00;17.50;;;;;;;;5010650;28;9668;-78
2022/11/21 09:45:17;;;;;;;;;26.67;24.33;;;;;;;;5010375;28;8775;-76
2022/11/21 09:47:48;;;;;;;;;24.00;24.00;;;;;;;;4990400;28;11612;-76
2022/11/21 09:50:13;;;;;;;;;22.25;21.00;;;;;;;;5010372;28;11483;-78
2022/11/21 09:52:50;;;;;;;;;20.50;20.00;;;;;;;;5010366;28;11499;-76
2022/11/21 09:55:21;;;;;;;;;22.75;21.00;;;;;;;;5010569;28;8798;-76
2022/11/21 09:57:48;;;;;;;;;25.00;24.00;;;;;;;;5010087;28;11527;-78
2022/11/21 10:00:21;;;;;;;;;25.75;21.00;;;;;;;;5010124;28;11491;-76
2022/11/21 10:02:47;;;;;;;;;22.00;20.50;;;;;;;;5010146;28;11753;-77
2022/11/21 10:05:13;;;;;;;;;25.75;25.75;;;;;;;;5010428;28;11755;-76
2022/11/21 10:07:39;;;;;;;;;32.25;25.25;;;;;;;;5010280;28;8799;-77
2022/11/21 10:10:04;;;;;;;;;25.00;24.25;;;;;;;;4992441;28;11637;-77
2022/11/21 10:12:35;;;;;;;;;24.50;23.75;;;;;;;;5010122;28;8833;-76
2022/11/21 10:15:16;;;;;;;;;28.25;26.00;;;;;;;;5009901;28;8886;-77
2022/11/21 10:17:50;;;;;;;;;26.25;23.75;;;;;;;;5010099;28;11537;-77
2022/11/21 10:20:27;;;;;;;;;26.25;24.75;;;;;;;;4993674;28;11508;-78
2022/11/21 10:22:53;;;;;;;;;26.00;23.50;;;;;;;;4996257;28;11515;-76
2022/11/21 10:25:45;;;;;;;;;34.25;28.50;;;;;;;;4996097;28;11535;-77
2022/11/21 10:28:15;;;;;;;;;30.25;26.00;;;;;;;;4972189;28;8857;-76
2022/11/21 10:30:42;;;;;;;;;27.25;25.00;;;;;;;;4972217;28;11539;-76
2022/11/21 10:33:13;;;;;;;;;25.50;21.25;;;;;;;;4972221;28;11640;-76
2022/11/21 10:56:36;;;;;;;;;28.50;26.25;;;;;;;;5099036;27;13456;-74
2022/11/21 10:59:10;;;;;;;;;27.75;23.75;;;;;;;;5085952;28;11530;-74
2022/11/21 11:01:35;;;;;;;;;23.25;23.25;;;;;;;;5084093;28;9592;-74
2022/11/21 11:04:05;;;;;;;;;25.25;21.75;;;;;;;;5085914;28;11455;-74
2022/11/21 11:06:30;;;;;;;;;27.50;24.75;;;;;;;;5086375;28;8915;-75
2022/11/21 11:08:55;;;;;;;;;23.50;20.75;;;;;;;;5095392;28;9953;-75
2022/11/21 11:11:21;;;;;;;;;23.00;23.00;;;;;;;;5106253;28;8822;-73
2022/11/21 11:13:53;;;;;;;;;27.33;25.33;;;;;;;;5106727;28;8808;-74
2022/11/21 11:16:20;;;;;;;;;21.50;21.50;;;;;;;;5106654;28;8808;-75
2022/11/21 11:18:54;;;;;;;;;24.75;23.00;;;;;;;;5106443;28;9575;-75
2022/11/21 11:21:21;;;;;;;;;26.00;25.00;;;;;;;;5106745;28;9633;-73
2022/11/21 11:23:47;;;;;;;;;26.00;23.25;;;;;;;;5106055;28;9549;-76
2022/11/21 11:26:19;;;;;;;;;21.50;21.25;;;;;;;;5108067;28;9824;-75
2022/11/21 11:28:44;;;;;;;;;27.50;24.75;;;;;;;;5106562;28;9869;-76
2022/11/21 11:31:10;;;;;;;;;23.25;23.25;;;;;;;;5106391;28;10463;-74
2022/11/21 11:34:01;;;;;;;;;26.25;25.25;;;;;;;;5106227;28;9700;-75
2022/11/21 11:36:35;;;;;;;;;20.75;19.75;;;;;;;;5083490;28;8967;-73
2022/11/21 11:39:05;;;;;;;;;26.25;24.75;;;;;;;;5103758;28;11179;-69
2022/11/21 11:47:40;;;;;;;;;14.00;13.25;;;;;;;;5049572;28;12545;-72
2022/11/21 11:50:18;;;;;;;;;25.50;24.00;;;;;;;;5098453;28;11466;-72
2022/11/21 11:52:58;;;;;;;;;20.50;18.25;;;;;;;;5105628;28;12282;-71
2022/11/21 11:55:26;;;;;;;;;19.75;17.00;;;;;;;;5104083;28;11569;-72
2022/11/21 11:57:54;;;;;;;;;16.00;13.75;;;;;;;;5105444;28;11463;-73
2022/11/21 12:00:37;;;;;;;;;16.75;16.75;;;;;;;;5098999;28;11434;-74
2022/11/21 12:03:28;;;;;;;;;17.00;16.00;;;;;;;;5105616;28;11439;-73
2022/11/21 12:05:57;;;;;;;;;18.00;15.00;;;;;;;;5102262;28;11444;-73
2022/11/21 12:08:39;;;;;;;;;20.75;15.50;;;;;;;;5091622;28;11605;-74
2022/11/21 12:17:07;;;;;;;;;16.00;14.25;;;;;;;;5082879;28;11405;-70
2022/11/21 12:19:34;;;;;;;;;15.50;15.00;;;;;;;;5090584;28;11496;-75
2022/11/21 12:22:00;;;;;;;;;21.00;18.50;;;;;;;;5091789;28;11476;-79
2022/11/21 12:24:26;;;;;;;;;15.50;13.00;;;;;;;;5094247;28;11537;-77
2022/11/21 12:27:04;;;;;;;;;18.00;13.00;;;;;;;;5080694;28;11464;-76
2022/11/21 12:29:56;;;;;;;;;19.25;15.75;;;;;;;;5071723;28;8784;-77
2022/11/21 12:32:37;;;;;;;;;15.00;11.75;;;;;;;;5042948;28;11501;-79
2022/11/21 12:35:21;;;;;;;;;16.50;15.50;;;;;;;;5076970;28;12274;-82
2022/11/21 12:37:46;;;;;;;;;16.75;14.75;;;;;;;;5079262;28;11626;-82
2022/11/21 12:40:21;;;;;;;;;17.00;15.50;;;;;;;;5082951;28;11495;-81
2022/11/21 12:42:49;;;;;;;;;15.50;14.00;;;;;;;;5079517;28;8816;-80
2022/11/21 12:45:33;;;;;;;;;13.00;11.25;;;;;;;;5080332;28;11450;-81
2022/11/21 12:57:02;;;;;;;;;19.00;14.00;;;;;;;;5080201;28;11504;-82
2022/11/21 12:59:29;;;;;;;;;19.25;14.00;;;;;;;;5077827;28;11510;-79
2022/11/21 13:01:58;;;;;;;;;20.75;18.75;;;;;;;;5071201;28;11504;-80
2022/11/21 13:04:27;;;;;;;;;26.00;20.25;;;;;;;;5069413;28;11755;-76
2022/11/21 13:06:54;;;;;;;;;20.00;20.00;;;;;;;;5073339;28;11642;-83
2022/11/21 13:09:20;;;;;;;;;22.75;21.50;;;;;;;;5070479;28;12277;-81
2022/11/21 13:11:59;;;;;;;;;28.25;21.00;;;;;;;;5069103;28;11608;-81
2022/11/21 13:14:29;;;;;;;;;20.50;19.00;;;;;;;;5067274;28;11550;-79
2022/11/21 13:17:09;;;;;;;;;18.75;18.75;;;;;;;;5069759;28;11537;-80
2022/11/21 13:19:34;;;;;;;;;24.50;20.00;;;;;;;;5068440;28;12277;-81
2022/11/21 13:21:59;;;;;;;;;22.25;17.50;;;;;;;;5069596;28;11646;-81
2022/11/21 13:24:43;;;;;;;;;19.00;17.00;;;;;;;;5075928;28;8918;-81
2022/11/21 13:27:23;;;;;;;;;19.00;17.25;;;;;;;;5079900;28;9560;-72
2022/11/21 13:30:06;;;;;;;;;22.75;21.00;;;;;;;;5049939;28;11584;-75
2022/11/21 13:32:36;;;;;;;;;20.00;17.25;;;;;;;;5074037;28;11482;-75
2022/11/21 13:35:01;;;;;;;;;25.25;23.75;;;;;;;;5079522;28;11553;-77
2022/11/21 13:37:45;;;;;;;;;21.25;20.50;;;;;;;;5078360;28;11005;-76
2022/11/21 13:40:26;;;;;;;;;21.50;20.25;;;;;;;;5084110;28;8807;-75
